sensor_id;sensor_type;location;lat;lon;timestamp;temperature;humidity
46356;DHT22;32066;49.474;11.106;2024-03-23T00:54:37;15.30;82.80
46356;DHT22;32066;49.474;11.106;2024-03-23T00:57:03;15.30;82.70
46356;DHT22;32066;49.474;11.106;2024-03-23T00:59:29;15.30;82.80
46356;DHT22;32066;49.474;11.106;2024-03-23T01:01:55;15.30;82.70
46356;DHT22;32066;49.474;11.106;2024-03-23T01:04:21;15.20;83.00
46356;DHT22;32066;49.474;11.106;2024-03-23T01:06:47;15.20;83.00
46356;DHT22;32066;49.474;11.106;2024-03-23T01:09:13;15.20;82.90
46356;DHT22;32066;49.474;11.106;2024-03-23T01:11:42;15.20;82.80
46356;DHT22;32066;49.474;11.106;2024-03-23T01:14:08;15.20;82.70
46356;DHT22;32066;49.474;11.106;2024-03-23T01:16:34;15.20;82.70
46356;DHT22;32066;49.474;11.106;2024-03-23T01:19:01;15.20;82.70
46356;DHT22;32066;49.474;11.106;2024-03-23T01:21:27;15.20;82.80
46356;DHT22;32066;49.474;11.106;2024-03-23T01:23:53;15.20;82.90
46356;DHT22;32066;49.474;11.106;2024-03-23T01:26:19;15.10;82.90
46356;DHT22;32066;49.474;11.106;2024-03-23T01:28:47;15.10;83.00
46356;DHT22;32066;49.474;11.106;2024-03-23T01:31:13;15.10;83.10
46356;DHT22;32066;49.474;11.106;2024-03-23T01:33:39;15.10;83.00
46356;DHT22;32066;49.474;11.106;2024-03-23T01:36:06;15.10;83.00
46356;DHT22;32066;49.474;11.106;2024-03-23T01:38:32;15.10;82.90
46356;DHT22;32066;49.474;11.106;2024-03-23T01:40:58;15.10;82.90
46356;DHT22;32066;49.474;11.106;2024-03-23T01:43:24;15.10;82.90
46356;DHT22;32066;49.474;11.106;2024-03-23T01:45:53;15.10;82.90
46356;DHT22;32066;49.474;11.106;2024-03-23T01:48:19;15.10;82.90
46356;DHT22;32066;49.474;11.106;2024-03-23T01:50:46;15.10;83.00
46356;DHT22;32066;49.474;11.106;2024-03-23T01:53:12;15.10;82.90
46356;DHT22;32066;49.474;11.106;2024-03-23T01:55:39;15.10;82.90
46356;DHT22;32066;49.474;11.106;2024-03-23T01:58:06;15.10;82.90
46356;DHT22;32066;49.474;11.106;2024-03-23T02:00:33;15.10;82.90
46356;DHT22;32066;49.474;11.106;2024-03-23T02:03:01;15.10;83.00
46356;DHT22;32066;49.474;11.106;2024-03-23T02:05:27;15.00;83.00
46356;DHT22;32066;49.474;11.106;2024-03-23T02:07:54;15.00;83.00
46356;DHT22;32066;49.474;11.106;2024-03-23T02:10:20;15.00;83.10
46356;DHT22;32066;49.474;11.106;2024-03-23T02:12:46;15.00;83.10
46356;DHT22;32066;49.474;11.106;2024-03-23T02:15:12;15.00;83.10
46356;DHT22;32066;49.474;11.106;2024-03-23T02:17:38;15.00;83.10
46356;DHT22;32066;49.474;11.106;2024-03-23T02:20:08;15.00;83.20
46356;DHT22;32066;49.474;11.106;2024-03-23T02:22:37;15.00;83.20
46356;DHT22;32066;49.474;11.106;2024-03-23T02:25:07;15.00;83.10
46356;DHT22;32066;49.474;11.106;2024-03-23T02:27:33;15.00;83.20
46356;DHT22;32066;49.474;11.106;2024-03-23T02:29:59;15.00;83.20
46356;DHT22;32066;49.474;11.106;2024-03-23T02:32:25;15.00;83.20
46356;DHT22;32066;49.474;11.106;2024-03-23T02:34:51;15.00;83.30
46356;DHT22;32066;49.474;11.106;2024-03-23T02:37:17;15.00;83.30
46356;DHT22;32066;49.474;11.106;2024-03-23T02:39:43;15.00;83.30
46356;DHT22;32066;49.474;11.106;2024-03-23T02:42:12;15.00;83.20
46356;DHT22;32066;49.474;11.106;2024-03-23T02:44:38;15.00;83.30
46356;DHT22;32066;49.474;11.106;2024-03-23T02:47:05;15.00;83.40
46356;DHT22;32066;49.474;11.106;2024-03-23T02:49:31;15.00;83.50
46356;DHT22;32066;49.474;11.106;2024-03-23T02:51:57;15.00;83.50
46356;DHT22;32066;49.474;11.106;2024-03-23T02:54:28;15.00;83.50
46356;DHT22;32066;49.474;11.106;2024-03-23T02:56:54;15.00;83.50
46356;DHT22;32066;49.474;11.106;2024-03-23T02:59:23;15.00;83.60
46356;DHT22;32066;49.474;11.106;2024-03-23T03:01:49;15.00;83.60
46356;DHT22;32066;49.474;11.106;2024-03-23T03:04:15;15.00;83.60
46356;DHT22;32066;49.474;11.106;2024-03-23T03:06:41;15.00;83.70
46356;DHT22;32066;49.474;11.106;2024-03-23T03:09:07;14.90;83.60
46356;DHT22;32066;49.474;11.106;2024-03-23T03:11:33;14.90;83.60
46356;DHT22;32066;49.474;11.106;2024-03-23T03:13:59;14.90;83.70
46356;DHT22;32066;49.474;11.106;2024-03-23T03:16:28;14.90;83.70
46356;DHT22;32066;49.474;11.106;2024-03-23T03:18:54;14.90;83.70
46356;DHT22;32066;49.474;11.106;2024-03-23T03:21:20;14.90;83.70
46356;DHT22;32066;49.474;11.106;2024-03-23T03:23:46;14.90;83.80
46356;DHT22;32066;49.474;11.106;2024-03-23T03:26:12;14.90;83.90
46356;DHT22;32066;49.474;11.106;2024-03-23T03:28:38;14.90;83.90
46356;DHT22;32066;49.474;11.106;2024-03-23T03:31:04;14.90;84.00
46356;DHT22;32066;49.474;11.106;2024-03-23T03:33:33;14.90;84.10
46356;DHT22;32066;49.474;11.106;2024-03-23T03:35:59;14.90;84.20
46356;DHT22;32066;49.474;11.106;2024-03-23T03:38:25;14.90;84.20
46356;DHT22;32066;49.474;11.106;2024-03-23T03:40:51;14.90;84.30
46356;DHT22;32066;49.474;11.106;2024-03-23T03:43:18;14.90;84.30
46356;DHT22;32066;49.474;11.106;2024-03-23T03:45:51;14.90;84.40
46356;DHT22;32066;49.474;11.106;2024-03-23T03:48:17;14.90;84.50
46356;DHT22;32066;49.474;11.106;2024-03-23T03:50:46;14.90;84.60
46356;DHT22;32066;49.474;11.106;2024-03-23T03:53:12;14.90;84.60
46356;DHT22;32066;49.474;11.106;2024-03-23T03:55:38;14.90;84.70
46356;DHT22;32066;49.474;11.106;2024-03-23T03:58:04;14.90;84.70
46356;DHT22;32066;49.474;11.106;2024-03-23T04:00:30;14.90;84.70
46356;DHT22;32066;49.474;11.106;2024-03-23T04:02:57;14.90;84.70
46356;DHT22;32066;49.474;11.106;2024-03-23T04:05:23;14.90;84.90
46356;DHT22;32066;49.474;11.106;2024-03-23T04:07:52;14.90;85.00
46356;DHT22;32066;49.474;11.106;2024-03-23T04:10:18;14.90;84.90
46356;DHT22;32066;49.474;11.106;2024-03-23T04:12:44;14.90;85.00
46356;DHT22;32066;49.474;11.106;2024-03-23T04:15:10;14.90;85.00
46356;DHT22;32066;49.474;11.106;2024-03-23T04:17:36;14.90;85.00
46356;DHT22;32066;49.474;11.106;2024-03-23T04:20:03;14.90;85.00
46356;DHT22;32066;49.474;11.106;2024-03-23T04:22:29;14.90;85.10
46356;DHT22;32066;49.474;11.106;2024-03-23T04:24:58;14.90;85.40
46356;DHT22;32066;49.474;11.106;2024-03-23T04:27:24;14.90;85.10
46356;DHT22;32066;49.474;11.106;2024-03-23T04:29:51;14.90;85.10
46356;DHT22;32066;49.474;11.106;2024-03-23T04:32:17;14.80;85.10
46356;DHT22;32066;49.474;11.106;2024-03-23T04:34:44;14.80;85.10
46356;DHT22;32066;49.474;11.106;2024-03-23T04:37:10;14.80;85.20
46356;DHT22;32066;49.474;11.106;2024-03-23T04:39:36;14.80;85.20
46356;DHT22;32066;49.474;11.106;2024-03-23T04:42:06;14.80;85.20
46356;DHT22;32066;49.474;11.106;2024-03-23T04:44:32;14.80;85.20
46356;DHT22;32066;49.474;11.106;2024-03-23T04:46:59;14.80;85.20
46356;DHT22;32066;49.474;11.106;2024-03-23T04:49:25;14.80;85.30
46356;DHT22;32066;49.474;11.106;2024-03-23T04:51:52;14.70;85.40
46356;DHT22;32066;49.474;11.106;2024-03-23T04:54:18;14.80;85.50
46356;DHT22;32066;49.474;11.106;2024-03-23T04:56:48;14.80;85.50
46356;DHT22;32066;49.474;11.106;2024-03-23T04:59:17;14.80;85.40
46356;DHT22;32066;49.474;11.106;2024-03-23T05:01:43;14.70;85.40
46356;DHT22;32066;49.474;11.106;2024-03-23T05:04:09;14.70;85.50
46356;DHT22;32066;49.474;11.106;2024-03-23T05:06:35;14.70;85.50
46356;DHT22;32066;49.474;11.106;2024-03-23T05:09:01;14.70;85.60
46356;DHT22;32066;49.474;11.106;2024-03-23T05:11:28;14.70;85.50
46356;DHT22;32066;49.474;11.106;2024-03-23T05:13:55;14.70;85.60
46356;DHT22;32066;49.474;11.106;2024-03-23T05:16:23;14.70;85.60
46356;DHT22;32066;49.474;11.106;2024-03-23T05:18:49;14.70;85.60
46356;DHT22;32066;49.474;11.106;2024-03-23T05:21:15;14.70;85.80
46356;DHT22;32066;49.474;11.106;2024-03-23T05:23:41;14.70;85.60
46356;DHT22;32066;49.474;11.106;2024-03-23T05:26:08;14.70;85.80
46356;DHT22;32066;49.474;11.106;2024-03-23T05:28:34;14.70;85.80
46356;DHT22;32066;49.474;11.106;2024-03-23T05:31:00;14.70;85.70
46356;DHT22;32066;49.474;11.106;2024-03-23T05:33:29;14.70;85.70
46356;DHT22;32066;49.474;11.106;2024-03-23T05:35:56;14.70;85.70
46356;DHT22;32066;49.474;11.106;2024-03-23T05:38:23;14.70;85.80
46356;DHT22;32066;49.474;11.106;2024-03-23T05:40:53;14.70;85.80
46356;DHT22;32066;49.474;11.106;2024-03-23T05:43:19;14.80;85.70
46356;DHT22;32066;49.474;11.106;2024-03-23T05:45:45;14.80;85.80
46356;DHT22;32066;49.474;11.106;2024-03-23T05:48:11;14.80;85.90
46356;DHT22;32066;49.474;11.106;2024-03-23T05:50:40;14.80;85.90
46356;DHT22;32066;49.474;11.106;2024-03-23T05:53:06;14.80;86.00
46356;DHT22;32066;49.474;11.106;2024-03-23T05:55:32;14.80;86.00
46356;DHT22;32066;49.474;11.106;2024-03-23T05:57:58;14.80;86.10
46356;DHT22;32066;49.474;11.106;2024-03-23T06:00:24;14.90;86.10
46356;DHT22;32066;49.474;11.106;2024-03-23T06:02:50;14.80;86.00
46356;DHT22;32066;49.474;11.106;2024-03-23T06:05:16;14.90;86.20
46356;DHT22;32066;49.474;11.106;2024-03-23T06:07:45;14.90;86.10
46356;DHT22;32066;49.474;11.106;2024-03-23T06:10:11;14.90;86.30
46356;DHT22;32066;49.474;11.106;2024-03-23T06:12:38;14.90;86.20
46356;DHT22;32066;49.474;11.106;2024-03-23T06:15:05;14.90;86.80
46356;DHT22;32066;49.474;11.106;2024-03-23T06:17:33;14.90;86.60
46356;DHT22;32066;49.474;11.106;2024-03-23T06:19:59;14.90;86.80
46356;DHT22;32066;49.474;11.106;2024-03-23T06:22:25;14.90;87.40
46356;DHT22;32066;49.474;11.106;2024-03-23T06:24:54;14.90;88.00
46356;DHT22;32066;49.474;11.106;2024-03-23T06:27:20;14.90;88.90
46356;DHT22;32066;49.474;11.106;2024-03-23T06:29:47;14.90;89.20
46356;DHT22;32066;49.474;11.106;2024-03-23T06:32:13;14.90;90.20
46356;DHT22;32066;49.474;11.106;2024-03-23T06:34:41;14.90;90.20
46356;DHT22;32066;49.474;11.106;2024-03-23T06:37:07;14.90;90.40
46356;DHT22;32066;49.474;11.106;2024-03-23T06:39:33;14.90;90.70
46356;DHT22;32066;49.474;11.106;2024-03-23T06:42:02;14.90;90.60
46356;DHT22;32066;49.474;11.106;2024-03-23T06:44:28;14.80;90.70
46356;DHT22;32066;49.474;11.106;2024-03-23T06:46:55;14.80;90.80
46356;DHT22;32066;49.474;11.106;2024-03-23T06:49:21;14.80;91.00
46356;DHT22;32066;49.474;11.106;2024-03-23T06:51:47;14.80;91.00
46356;DHT22;32066;49.474;11.106;2024-03-23T06:54:13;14.80;91.10
46356;DHT22;32066;49.474;11.106;2024-03-23T06:56:39;14.80;91.00
46356;DHT22;32066;49.474;11.106;2024-03-23T06:59:07;14.90;91.10
46356;DHT22;32066;49.474;11.106;2024-03-23T07:01:33;14.80;91.10
46356;DHT22;32066;49.474;11.106;2024-03-23T07:03:59;14.80;91.10
46356;DHT22;32066;49.474;11.106;2024-03-23T07:06:26;14.90;91.20
46356;DHT22;32066;49.474;11.106;2024-03-23T07:08:52;14.80;91.20
46356;DHT22;32066;49.474;11.106;2024-03-23T07:11:19;14.90;91.20
46356;DHT22;32066;49.474;11.106;2024-03-23T07:13:45;14.80;91.30
46356;DHT22;32066;49.474;11.106;2024-03-23T07:16:15;14.80;91.10
46356;DHT22;32066;49.474;11.106;2024-03-23T07:18:42;14.80;91.20
46356;DHT22;32066;49.474;11.106;2024-03-23T07:21:08;14.80;91.20
46356;DHT22;32066;49.474;11.106;2024-03-23T07:23:34;14.80;91.20
46356;DHT22;32066;49.474;11.106;2024-03-23T07:26:02;14.80;91.00
46356;DHT22;32066;49.474;11.106;2024-03-23T07:28:28;14.80;91.00
46356;DHT22;32066;49.474;11.106;2024-03-23T07:31:05;14.80;91.00
46356;DHT22;32066;49.474;11.106;2024-03-23T07:33:34;14.80;90.90
46356;DHT22;32066;49.474;11.106;2024-03-23T07:36:00;14.80;90.70
46356;DHT22;32066;49.474;11.106;2024-03-23T07:38:27;14.80;90.60
46356;DHT22;32066;49.474;11.106;2024-03-23T07:41:02;14.80;90.60
46356;DHT22;32066;49.474;11.106;2024-03-23T07:43:28;14.80;90.60
46356;DHT22;32066;49.474;11.106;2024-03-23T07:45:54;14.80;90.70
46356;DHT22;32066;49.474;11.106;2024-03-23T07:48:21;14.80;90.50
46356;DHT22;32066;49.474;11.106;2024-03-23T07:50:59;14.80;90.70
46356;DHT22;32066;49.474;11.106;2024-03-23T07:53:25;14.80;90.70
46356;DHT22;32066;49.474;11.106;2024-03-23T07:55:56;14.80;90.70
46356;DHT22;32066;49.474;11.106;2024-03-23T07:58:22;14.80;90.70
46356;DHT22;32066;49.474;11.106;2024-03-23T08:00:48;14.80;90.80
46356;DHT22;32066;49.474;11.106;2024-03-23T08:03:14;14.90;90.90
46356;DHT22;32066;49.474;11.106;2024-03-23T08:05:40;14.80;90.70
46356;DHT22;32066;49.474;11.106;2024-03-23T08:08:09;14.90;90.90
46356;DHT22;32066;49.474;11.106;2024-03-23T08:10:35;14.90;90.90
46356;DHT22;32066;49.474;11.106;2024-03-23T08:13:01;14.90;90.80
46356;DHT22;32066;49.474;11.106;2024-03-23T08:15:30;14.90;90.80
46356;DHT22;32066;49.474;11.106;2024-03-23T08:17:56;14.90;90.80
46356;DHT22;32066;49.474;11.106;2024-03-23T08:20:22;14.90;90.80
46356;DHT22;32066;49.474;11.106;2024-03-23T08:22:48;14.90;90.90
46356;DHT22;32066;49.474;11.106;2024-03-23T08:25:17;14.90;91.20
46356;DHT22;32066;49.474;11.106;2024-03-23T08:27:44;14.90;91.40
46356;DHT22;32066;49.474;11.106;2024-03-23T08:30:11;14.90;91.80
46356;DHT22;32066;49.474;11.106;2024-03-23T08:32:37;14.80;91.80
46356;DHT22;32066;49.474;11.106;2024-03-23T08:35:04;14.80;91.80
46356;DHT22;32066;49.474;11.106;2024-03-23T08:37:30;14.80;91.60
46356;DHT22;32066;49.474;11.106;2024-03-23T08:39:56;14.80;91.60
46356;DHT22;32066;49.474;11.106;2024-03-23T08:42:25;14.80;91.30
46356;DHT22;32066;49.474;11.106;2024-03-23T08:44:51;14.70;91.20
46356;DHT22;32066;49.474;11.106;2024-03-23T08:47:17;14.70;91.00
46356;DHT22;32066;49.474;11.106;2024-03-23T08:49:44;14.70;90.70
46356;DHT22;32066;49.474;11.106;2024-03-23T08:52:10;14.70;90.60
46356;DHT22;32066;49.474;11.106;2024-03-23T08:54:36;14.80;90.70
46356;DHT22;32066;49.474;11.106;2024-03-23T08:57:03;14.80;90.70
46356;DHT22;32066;49.474;11.106;2024-03-23T08:59:31;14.90;90.70
46356;DHT22;32066;49.474;11.106;2024-03-23T09:01:57;15.10;90.50
46356;DHT22;32066;49.474;11.106;2024-03-23T09:04:23;15.10;90.20
46356;DHT22;32066;49.474;11.106;2024-03-23T09:06:50;15.20;90.00
46356;DHT22;32066;49.474;11.106;2024-03-23T09:09:16;15.20;88.80
46356;DHT22;32066;49.474;11.106;2024-03-23T09:11:42;15.20;88.20
46356;DHT22;32066;49.474;11.106;2024-03-23T09:14:08;15.20;87.40
46356;DHT22;32066;49.474;11.106;2024-03-23T09:16:37;15.20;87.00
46356;DHT22;32066;49.474;11.106;2024-03-23T09:19:03;15.20;87.10
46356;DHT22;32066;49.474;11.106;2024-03-23T09:21:29;15.20;86.80
46356;DHT22;32066;49.474;11.106;2024-03-23T09:23:55;15.10;86.60
46356;DHT22;32066;49.474;11.106;2024-03-23T09:26:21;15.10;86.40
46356;DHT22;32066;49.474;11.106;2024-03-23T09:28:48;15.10;86.30
46356;DHT22;32066;49.474;11.106;2024-03-23T09:31:14;15.10;85.90
46356;DHT22;32066;49.474;11.106;2024-03-23T09:33:43;15.40;98.10
46356;DHT22;32066;49.474;11.106;2024-03-23T09:36:09;16.80;96.60
46356;DHT22;32066;49.474;11.106;2024-03-23T09:38:35;17.50;93.10
46356;DHT22;32066;49.474;11.106;2024-03-23T09:41:07;17.50;91.20
46356;DHT22;32066;49.474;11.106;2024-03-23T09:43:33;17.40;91.20
46356;DHT22;32066;49.474;11.106;2024-03-23T09:46:00;17.70;91.10
46356;DHT22;32066;49.474;11.106;2024-03-23T09:48:27;17.50;89.00
46356;DHT22;32066;49.474;11.106;2024-03-23T09:50:56;15.00;77.60
46356;DHT22;32066;49.474;11.106;2024-03-23T09:53:22;13.50;81.00
46356;DHT22;32066;49.474;11.106;2024-03-23T09:55:48;12.90;83.20
46356;DHT22;32066;49.474;11.106;2024-03-23T09:58:18;12.00;85.10
46356;DHT22;32066;49.474;11.106;2024-03-23T10:00:44;12.10;86.20
46356;DHT22;32066;49.474;11.106;2024-03-23T10:03:10;11.90;85.90
46356;DHT22;32066;49.474;11.106;2024-03-23T10:05:37;11.80;86.10
46356;DHT22;32066;49.474;11.106;2024-03-23T10:08:18;11.70;86.00
46356;DHT22;32066;49.474;11.106;2024-03-23T10:10:45;11.50;87.10
46356;DHT22;32066;49.474;11.106;2024-03-23T10:13:24;11.40;87.00
46356;DHT22;32066;49.474;11.106;2024-03-23T10:15:55;11.20;86.10
46356;DHT22;32066;49.474;11.106;2024-03-23T10:18:23;11.00;86.70
46356;DHT22;32066;49.474;11.106;2024-03-23T10:20:52;10.90;87.60
46356;DHT22;32066;49.474;11.106;2024-03-23T10:23:22;10.80;88.30
46356;DHT22;32066;49.474;11.106;2024-03-23T10:25:49;10.80;87.80
46356;DHT22;32066;49.474;11.106;2024-03-23T10:28:15;10.60;87.30
46356;DHT22;32066;49.474;11.106;2024-03-23T10:30:41;10.60;87.80
46356;DHT22;32066;49.474;11.106;2024-03-23T10:33:08;10.50;87.40
46356;DHT22;32066;49.474;11.106;2024-03-23T10:35:34;10.50;88.20
46356;DHT22;32066;49.474;11.106;2024-03-23T10:38:01;10.50;88.60
46356;DHT22;32066;49.474;11.106;2024-03-23T10:40:30;10.40;88.50
46356;DHT22;32066;49.474;11.106;2024-03-23T10:42:58;10.30;89.70
46356;DHT22;32066;49.474;11.106;2024-03-23T10:45:24;10.40;90.00
46356;DHT22;32066;49.474;11.106;2024-03-23T10:47:51;10.50;89.20
46356;DHT22;32066;49.474;11.106;2024-03-23T10:50:18;10.60;88.50
46356;DHT22;32066;49.474;11.106;2024-03-23T10:52:47;10.50;88.10
46356;DHT22;32066;49.474;11.106;2024-03-23T10:55:16;10.60;88.70
46356;DHT22;32066;49.474;11.106;2024-03-23T10:57:50;10.80;89.20
46356;DHT22;32066;49.474;11.106;2024-03-23T11:00:17;11.00;87.50
46356;DHT22;32066;49.474;11.106;2024-03-23T11:02:44;10.90;85.90
46356;DHT22;32066;49.474;11.106;2024-03-23T11:05:28;10.90;85.90
46356;DHT22;32066;49.474;11.106;2024-03-23T11:07:54;10.70;85.60
46356;DHT22;32066;49.474;11.106;2024-03-23T11:10:27;10.60;86.10
46356;DHT22;32066;49.474;11.106;2024-03-23T11:12:56;10.50;84.90
46356;DHT22;32066;49.474;11.106;2024-03-23T11:15:22;10.60;85.00
46356;DHT22;32066;49.474;11.106;2024-03-23T11:18:03;10.60;84.30
46356;DHT22;32066;49.474;11.106;2024-03-23T11:20:32;10.80;83.70
46356;DHT22;32066;49.474;11.106;2024-03-23T11:22:59;10.90;83.70
46356;DHT22;32066;49.474;11.106;2024-03-23T11:25:26;10.90;84.30
46356;DHT22;32066;49.474;11.106;2024-03-23T11:27:56;11.10;84.30
46356;DHT22;32066;49.474;11.106;2024-03-23T11:30:24;11.30;82.10
46356;DHT22;32066;49.474;11.106;2024-03-23T11:32:51;11.40;80.80
46356;DHT22;32066;49.474;11.106;2024-03-23T11:35:25;11.40;81.10
46356;DHT22;32066;49.474;11.106;2024-03-23T11:38:05;11.20;80.70
46356;DHT22;32066;49.474;11.106;2024-03-23T11:40:32;11.10;80.50
46356;DHT22;32066;49.474;11.106;2024-03-23T11:43:02;11.20;81.30
46356;DHT22;32066;49.474;11.106;2024-03-23T11:45:29;11.20;81.00
46356;DHT22;32066;49.474;11.106;2024-03-23T11:48:04;11.00;80.70
46356;DHT22;32066;49.474;11.106;2024-03-23T11:50:30;11.00;81.00
46356;DHT22;32066;49.474;11.106;2024-03-23T11:53:11;11.10;78.90
46356;DHT22;32066;49.474;11.106;2024-03-23T11:55:55;11.20;77.10
46356;DHT22;32066;49.474;11.106;2024-03-23T11:58:25;11.20;77.50
46356;DHT22;32066;49.474;11.106;2024-03-23T12:00:52;11.00;78.00
46356;DHT22;32066;49.474;11.106;2024-03-23T12:03:19;10.80;78.20
46356;DHT22;32066;49.474;11.106;2024-03-23T12:05:48;10.70;79.10
46356;DHT22;32066;49.474;11.106;2024-03-23T12:08:22;11.00;78.80
46356;DHT22;32066;49.474;11.106;2024-03-23T12:10:50;11.30;77.60
46356;DHT22;32066;49.474;11.106;2024-03-23T12:13:17;11.30;75.00
46356;DHT22;32066;49.474;11.106;2024-03-23T12:15:48;11.30;73.00
46356;DHT22;32066;49.474;11.106;2024-03-23T12:18:15;11.40;73.30
46356;DHT22;32066;49.474;11.106;2024-03-23T12:20:41;11.50;73.00
46356;DHT22;32066;49.474;11.106;2024-03-23T12:23:08;11.70;73.60
46356;DHT22;32066;49.474;11.106;2024-03-23T12:25:36;11.80;72.40
46356;DHT22;32066;49.474;11.106;2024-03-23T12:28:02;11.70;71.10
46356;DHT22;32066;49.474;11.106;2024-03-23T12:30:28;11.80;71.80
46356;DHT22;32066;49.474;11.106;2024-03-23T12:32:57;11.50;71.70
46356;DHT22;32066;49.474;11.106;2024-03-23T12:35:23;11.40;72.60
46356;DHT22;32066;49.474;11.106;2024-03-23T12:37:49;11.70;72.90
46356;DHT22;32066;49.474;11.106;2024-03-23T12:40:15;11.90;73.30
46356;DHT22;32066;49.474;11.106;2024-03-23T12:42:41;12.10;72.70
46356;DHT22;32066;49.474;11.106;2024-03-23T12:45:08;12.30;72.20
46356;DHT22;32066;49.474;11.106;2024-03-23T12:47:34;12.50;73.10
46356;DHT22;32066;49.474;11.106;2024-03-23T12:50:04;12.70;71.00
46356;DHT22;32066;49.474;11.106;2024-03-23T12:52:30;12.70;69.50
46356;DHT22;32066;49.474;11.106;2024-03-23T12:54:56;12.90;69.70
46356;DHT22;32066;49.474;11.106;2024-03-23T12:57:23;13.00;70.30
46356;DHT22;32066;49.474;11.106;2024-03-23T12:59:50;12.90;70.00
46356;DHT22;32066;49.474;11.106;2024-03-23T13:02:18;12.90;70.00
46356;DHT22;32066;49.474;11.106;2024-03-23T13:04:45;13.10;70.10
46356;DHT22;32066;49.474;11.106;2024-03-23T13:07:14;13.10;69.80
46356;DHT22;32066;49.474;11.106;2024-03-23T13:09:40;13.00;68.60
46356;DHT22;32066;49.474;11.106;2024-03-23T13:12:07;12.80;68.20
46356;DHT22;32066;49.474;11.106;2024-03-23T13:14:33;12.70;68.60
46356;DHT22;32066;49.474;11.106;2024-03-23T13:17:01;12.80;68.70
46356;DHT22;32066;49.474;11.106;2024-03-23T13:19:27;12.90;68.90
46356;DHT22;32066;49.474;11.106;2024-03-23T13:21:54;13.10;68.60
46356;DHT22;32066;49.474;11.106;2024-03-23T13:24:24;13.30;68.10
46356;DHT22;32066;49.474;11.106;2024-03-23T13:26:51;13.10;67.00
46356;DHT22;32066;49.474;11.106;2024-03-23T13:29:17;13.10;66.20
46356;DHT22;32066;49.474;11.106;2024-03-23T13:31:43;13.20;66.70
46356;DHT22;32066;49.474;11.106;2024-03-23T13:34:09;13.10;65.40
46356;DHT22;32066;49.474;11.106;2024-03-23T13:36:35;12.70;66.10
46356;DHT22;32066;49.474;11.106;2024-03-23T13:39:01;12.50;66.00
46356;DHT22;32066;49.474;11.106;2024-03-23T13:41:31;12.60;66.10
46356;DHT22;32066;49.474;11.106;2024-03-23T13:43:57;12.60;65.20
46356;DHT22;32066;49.474;11.106;2024-03-23T13:46:23;12.40;65.50
46356;DHT22;32066;49.474;11.106;2024-03-23T13:48:49;12.50;65.90
46356;DHT22;32066;49.474;11.106;2024-03-23T13:51:15;12.60;66.90
46356;DHT22;32066;49.474;11.106;2024-03-23T13:53:48;12.70;65.30
46356;DHT22;32066;49.474;11.106;2024-03-23T13:56:14;12.60;64.80
46356;DHT22;32066;49.474;11.106;2024-03-23T13:58:43;12.40;64.80
46356;DHT22;32066;49.474;11.106;2024-03-23T14:01:11;12.60;65.10
46356;DHT22;32066;49.474;11.106;2024-03-23T14:03:37;12.80;65.00
46356;DHT22;32066;49.474;11.106;2024-03-23T14:06:03;12.90;64.60
46356;DHT22;32066;49.474;11.106;2024-03-23T14:08:30;13.20;64.10
46356;DHT22;32066;49.474;11.106;2024-03-23T14:10:56;13.10;63.30
46356;DHT22;32066;49.474;11.106;2024-03-23T14:13:23;13.20;63.30
46356;DHT22;32066;49.474;11.106;2024-03-23T14:15:55;13.40;63.10
46356;DHT22;32066;49.474;11.106;2024-03-23T14:18:21;13.50;62.70
46356;DHT22;32066;49.474;11.106;2024-03-23T14:20:48;13.70;63.20
46356;DHT22;32066;49.474;11.106;2024-03-23T14:23:14;14.00;63.00
46356;DHT22;32066;49.474;11.106;2024-03-23T14:25:40;14.10;62.80
46356;DHT22;32066;49.474;11.106;2024-03-23T14:28:06;14.10;62.00
46356;DHT22;32066;49.474;11.106;2024-03-23T14:30:32;14.20;61.90
46356;DHT22;32066;49.474;11.106;2024-03-23T14:33:01;14.00;61.20
46356;DHT22;32066;49.474;11.106;2024-03-23T14:35:27;14.00;60.60
46356;DHT22;32066;49.474;11.106;2024-03-23T14:37:53;13.60;59.70
46356;DHT22;32066;49.474;11.106;2024-03-23T14:40:19;13.50;60.70
46356;DHT22;32066;49.474;11.106;2024-03-23T14:42:45;13.60;61.10
46356;DHT22;32066;49.474;11.106;2024-03-23T14:45:12;13.60;62.40
46356;DHT22;32066;49.474;11.106;2024-03-23T14:47:38;13.90;63.50
46356;DHT22;32066;49.474;11.106;2024-03-23T14:50:07;14.10;63.60
46356;DHT22;32066;49.474;11.106;2024-03-23T14:52:34;13.70;63.00
46356;DHT22;32066;49.474;11.106;2024-03-23T14:55:00;13.60;64.00
46356;DHT22;32066;49.474;11.106;2024-03-23T14:57:26;13.30;64.90
46356;DHT22;32066;49.474;11.106;2024-03-23T14:59:52;13.40;66.40
46356;DHT22;32066;49.474;11.106;2024-03-23T15:02:18;13.30;66.70
46356;DHT22;32066;49.474;11.106;2024-03-23T15:04:44;13.10;67.50
46356;DHT22;32066;49.474;11.106;2024-03-23T15:07:13;12.90;67.90
46356;DHT22;32066;49.474;11.106;2024-03-23T15:09:39;12.90;67.80
46356;DHT22;32066;49.474;11.106;2024-03-23T15:12:06;12.80;68.60
46356;DHT22;32066;49.474;11.106;2024-03-23T15:14:33;12.60;69.00
46356;DHT22;32066;49.474;11.106;2024-03-23T15:16:59;12.10;69.90
46356;DHT22;32066;49.474;11.106;2024-03-23T15:19:25;11.30;82.10
46356;DHT22;32066;49.474;11.106;2024-03-23T15:21:51;10.40;89.30
46356;DHT22;32066;49.474;11.106;2024-03-23T15:24:20;9.70;91.20
46356;DHT22;32066;49.474;11.106;2024-03-23T15:26:46;9.10;92.50
46356;DHT22;32066;49.474;11.106;2024-03-23T15:29:12;8.80;93.70
46356;DHT22;32066;49.474;11.106;2024-03-23T15:31:38;8.90;93.90
46356;DHT22;32066;49.474;11.106;2024-03-23T15:34:04;9.00;94.80
46356;DHT22;32066;49.474;11.106;2024-03-23T15:36:31;9.40;95.10
46356;DHT22;32066;49.474;11.106;2024-03-23T15:38:57;9.80;95.00
46356;DHT22;32066;49.474;11.106;2024-03-23T15:41:26;10.20;94.10
46356;DHT22;32066;49.474;11.106;2024-03-23T15:43:52;10.50;93.50
46356;DHT22;32066;49.474;11.106;2024-03-23T15:46:18;10.80;92.70
46356;DHT22;32066;49.474;11.106;2024-03-23T15:48:45;11.10;91.80
46356;DHT22;32066;49.474;11.106;2024-03-23T15:51:12;11.10;90.70
46356;DHT22;32066;49.474;11.106;2024-03-23T15:53:38;11.20;90.00
46356;DHT22;32066;49.474;11.106;2024-03-23T15:56:05;11.20;90.10
46356;DHT22;32066;49.474;11.106;2024-03-23T15:58:34;11.30;90.10
46356;DHT22;32066;49.474;11.106;2024-03-23T16:01:01;11.40;89.00
46356;DHT22;32066;49.474;11.106;2024-03-23T16:03:27;11.40;88.70
46356;DHT22;32066;49.474;11.106;2024-03-23T16:05:54;11.30;88.30
46356;DHT22;32066;49.474;11.106;2024-03-23T16:08:21;11.40;87.40
46356;DHT22;32066;49.474;11.106;2024-03-23T16:10:47;11.50;86.40